Terminal Aerodrome Forecast
Issued by NWS Sioux Falls, SD

Home | Current Version | Previous Version | Text Only | Print | Product List | Glossary On
Versions: 1 2 3 4 5 6 7 8 9 10 11 12 13 14 15 16
000
FTUS43 KFSD 231122
TAFFSD
TAF
KFSD 231122Z 2312/2412 20007KT P6SM FEW250
     FM231500 21011KT P6SM FEW250
     FM231800 20017G24KT P6SM FEW250
     FM240100 17012G18KT P6SM FEW250
     FM240500 17013G20KT P6SM SCT250 WS010/20042KT=

USA.gov is the U.S. government's official web portal to all federal, state and local government web resources and services.